createdAt,value
2018-09-28T00:01:27.733Z,7.13
2018-09-28T00:03:57.535Z,6.40
2018-09-28T00:06:26.605Z,6.20
2018-09-28T00:09:10.920Z,6.73
2018-09-28T00:18:31.032Z,6.23
2018-09-28T00:21:00.561Z,6.70
2018-09-28T00:23:29.722Z,7.03
2018-09-28T00:25:59.058Z,7.67
2018-09-28T00:28:28.086Z,8.40
2018-09-28T00:30:57.289Z,7.30
2018-09-28T00:33:27.896Z,7.37
2018-09-28T00:36:17.743Z,7.47
2018-09-28T00:38:46.883Z,6.83
2018-09-28T00:41:16.189Z,7.23
2018-09-28T00:43:57.862Z,7.23
2018-09-28T00:46:27.054Z,7.03
2018-09-28T00:48:59.949Z,6.77
2018-09-28T00:51:36.658Z,7.50
2018-09-28T00:54:05.811Z,6.13
2018-09-28T00:56:58.347Z,7.10
2018-09-28T00:59:35.525Z,7.33
2018-09-28T01:02:04.725Z,7.43
2018-09-28T01:04:59.752Z,7.03
2018-09-28T01:07:28.772Z,6.57
2018-09-28T01:09:57.966Z,6.83
2018-09-28T01:12:28.743Z,6.60
2018-09-28T01:14:57.984Z,6.97
2018-09-28T01:17:27.135Z,6.33
2018-09-28T01:20:08.719Z,6.30
2018-09-28T01:22:45.245Z,6.90
2018-09-28T01:25:14.437Z,6.80
2018-09-28T01:27:43.602Z,6.77
2018-09-28T01:30:12.803Z,7.40
2018-09-28T01:32:56.554Z,7.23
2018-09-28T01:35:32.873Z,7.20
2018-09-28T01:38:03.446Z,7.17
2018-09-28T01:40:34.306Z,7.13
2018-09-28T01:43:03.947Z,6.30
2018-09-28T01:45:35.230Z,6.80
2018-09-28T01:48:04.625Z,6.90
2018-09-28T01:50:34.066Z,7.37
2018-09-28T01:53:05.185Z,6.73
2018-09-28T01:55:38.407Z,7.20
2018-09-28T01:58:07.847Z,6.40
2018-09-28T02:00:38.894Z,6.70
2018-09-28T02:03:08.165Z,6.73
2018-09-28T02:05:44.686Z,6.93
2018-09-28T02:08:13.801Z,7.40
2018-09-28T02:10:42.958Z,7.50
2018-09-28T02:13:12.285Z,7.00
2018-09-28T02:15:41.525Z,6.77
2018-09-28T02:18:27.115Z,6.57
2018-09-28T02:20:56.247Z,6.60
2018-09-28T02:23:25.413Z,6.67
2018-09-28T02:25:54.654Z,6.63
2018-09-28T02:28:23.827Z,6.57
2018-09-28T02:30:53.033Z,6.33
2018-09-28T02:33:22.201Z,7.50
2018-09-28T02:35:53.988Z,6.97
2018-09-28T02:38:23.179Z,7.00
2018-09-28T02:41:12.580Z,6.53
2018-09-28T02:43:57.637Z,6.40
2018-09-28T02:46:26.978Z,6.37
2018-09-28T02:49:10.843Z,7.10
2018-09-28T02:51:40.001Z,6.77
2018-09-28T02:54:26.006Z,6.33
2018-09-28T02:57:07.663Z,6.93
2018-09-28T02:59:48.565Z,7.20
2018-09-28T03:02:17.717Z,6.37
2018-09-28T03:04:54.991Z,6.33
2018-09-28T03:07:36.331Z,7.33
2018-09-28T03:10:06.507Z,7.43
2018-09-28T03:12:35.651Z,7.40
2018-09-28T03:15:17.676Z,7.47
2018-09-28T03:17:55.082Z,6.63
2018-09-28T03:20:25.315Z,6.67
2018-09-28T03:22:54.492Z,6.23
2018-09-28T03:25:23.664Z,6.70
2018-09-28T03:27:53.095Z,7.40
2018-09-28T03:30:22.219Z,6.57
2018-09-28T03:32:51.359Z,6.87
2018-09-28T03:35:20.501Z,6.60
2018-09-28T03:37:49.653Z,6.70
2018-09-28T03:40:18.818Z,7.20
2018-09-28T03:42:55.245Z,7.40
2018-09-28T03:45:24.491Z,6.87
2018-09-28T03:48:04.417Z,6.70
2018-09-28T03:50:33.632Z,7.30
2018-09-28T03:53:02.766Z,6.93
2018-09-28T03:55:31.929Z,7.60
2018-09-28T03:58:11.997Z,7.13
2018-09-28T04:00:42.777Z,7.03
2018-09-28T04:03:12.734Z,7.03
2018-09-28T04:05:41.880Z,7.90
2018-09-28T04:08:11.975Z,7.50
2018-09-28T04:11:21.635Z,6.60
2018-09-28T04:13:50.817Z,7.83
2018-09-28T04:16:24.793Z,6.80
2018-09-28T04:18:54.943Z,6.83
2018-09-28T04:25:05.390Z,7.80
2018-09-28T04:31:06.610Z,7.17
2018-09-28T04:33:36.099Z,7.53
2018-09-28T04:36:05.240Z,8.20
2018-09-28T04:42:09.711Z,8.27
2018-09-28T04:44:39.515Z,8.47
2018-09-28T04:47:09.423Z,8.40
2018-09-28T04:49:39.193Z,8.43
2018-09-28T04:52:49.686Z,8.00
2018-09-28T04:56:05.455Z,8.73
2018-09-28T04:58:35.758Z,8.23
2018-09-28T05:01:04.858Z,8.50
2018-09-28T05:03:33.963Z,8.93
2018-09-28T05:10:12.997Z,9.43
2018-09-28T05:12:42.074Z,8.57
2018-09-28T05:15:11.149Z,9.37
2018-09-28T05:17:40.328Z,8.47
2018-09-28T05:20:09.841Z,8.30
2018-09-28T05:22:40.495Z,8.27
2018-09-28T05:25:22.777Z,8.70
2018-09-28T05:28:25.661Z,8.10
2018-09-28T05:31:44.471Z,8.03
2018-09-28T05:34:21.696Z,7.90
2018-09-28T05:36:50.900Z,8.43
2018-09-28T05:39:58.730Z,8.63
2018-09-28T05:42:33.919Z,9.40
2018-09-28T05:45:55.122Z,9.03
2018-09-28T05:48:37.997Z,8.73
2018-09-28T05:51:08.154Z,9.10
2018-09-28T05:56:36.429Z,10.03
2018-09-28T06:02:13.771Z,9.27
2018-09-28T06:04:48.156Z,9.30
2018-09-28T06:07:22.658Z,9.00
2018-09-28T06:13:23.222Z,9.37
2018-09-28T06:16:15.193Z,9.67
2018-09-28T06:18:46.975Z,9.93
2018-09-28T06:21:41.837Z,10.60
2018-09-28T06:27:31.769Z,9.40
2018-09-28T06:33:33.792Z,9.10
2018-09-28T06:36:02.939Z,9.23
2018-09-28T06:38:31.992Z,9.70
2018-09-28T06:41:01.137Z,9.57
2018-09-28T06:43:30.281Z,9.10
2018-09-28T06:45:59.487Z,11.17
2018-09-28T06:48:29.039Z,9.00
2018-09-28T06:50:58.279Z,9.07
2018-09-28T06:53:27.490Z,9.97
2018-09-28T06:55:56.574Z,9.43
2018-09-28T06:58:25.792Z,9.13
2018-09-28T07:00:55.011Z,8.97
2018-09-28T07:03:24.210Z,9.33
2018-09-28T07:05:53.321Z,9.40
2018-09-28T07:08:22.490Z,9.70
2018-09-28T07:10:51.595Z,9.27
2018-09-28T07:13:21.165Z,8.40
2018-09-28T07:15:55.634Z,9.77
2018-09-28T07:18:24.749Z,8.57
2018-09-28T07:20:56.634Z,9.30
2018-09-28T07:27:01.201Z,7.60
2018-09-28T07:29:30.215Z,7.37
2018-09-28T07:31:59.302Z,6.90
2018-09-28T07:34:28.472Z,6.40
2018-09-28T07:36:57.792Z,7.73
2018-09-28T07:39:26.863Z,7.43
2018-09-28T07:41:56.850Z,7.27
2018-09-28T07:44:25.808Z,7.47
2018-09-28T07:46:54.870Z,6.93
2018-09-28T07:49:25.868Z,6.80
2018-09-28T07:51:57.136Z,6.93
2018-09-28T07:54:26.201Z,6.70
2018-09-28T07:56:55.178Z,6.83
2018-09-28T07:59:24.379Z,7.33
2018-09-28T08:01:53.610Z,8.57
2018-09-28T08:04:24.140Z,9.10
2018-09-28T08:06:53.322Z,9.47
2018-09-28T08:09:22.427Z,9.63
2018-09-28T08:11:51.692Z,9.53
2018-09-28T08:14:20.890Z,9.57
2018-09-28T08:16:50.141Z,9.27
2018-09-28T08:19:19.987Z,10.03
2018-09-28T08:21:49.825Z,9.97
2018-09-28T08:24:29.417Z,9.40
2018-09-28T08:26:58.558Z,9.30
2018-09-28T08:29:28.414Z,9.93
2018-09-28T08:31:57.482Z,9.77
2018-09-28T08:34:26.593Z,9.47
2018-09-28T08:36:55.768Z,8.78
2018-09-28T08:39:24.898Z,8.38
2018-09-28T08:41:56.028Z,7.67
2018-09-28T08:44:25.050Z,7.67
2018-09-28T08:46:57.543Z,7.35
2018-09-28T08:49:27.296Z,7.15
2018-09-28T08:51:56.795Z,7.15
2018-09-28T08:54:26.366Z,7.92
2018-09-28T08:56:55.530Z,7.78
2018-09-28T08:59:24.719Z,7.62
2018-09-28T09:01:53.790Z,7.85
2018-09-28T09:04:24.070Z,7.08
2018-09-28T09:06:53.740Z,7.45
2018-09-28T09:09:23.000Z,7.35
2018-09-28T09:11:52.505Z,6.83
2018-09-28T09:14:21.645Z,6.72
2018-09-28T09:16:52.473Z,6.97
2018-09-28T09:19:21.682Z,7.62
2018-09-28T09:21:50.819Z,6.92
2018-09-28T09:24:20.609Z,6.37
2018-09-28T09:26:49.726Z,6.70
2018-09-28T09:29:19.988Z,6.87
2018-09-28T09:31:49.094Z,6.15
2018-09-28T09:34:18.369Z,6.33
2018-09-28T09:36:48.169Z,6.37
2018-09-28T09:39:17.806Z,6.72
2018-09-28T09:41:47.397Z,7.78
2018-09-28T09:44:16.593Z,6.15
2018-09-28T09:46:45.617Z,5.00
2018-09-28T09:49:15.314Z,4.40
2018-09-28T09:51:45.398Z,4.40
2018-09-28T09:54:15.200Z,3.77
2018-09-28T09:56:44.314Z,4.17
2018-09-28T09:59:13.835Z,4.37
2018-09-28T10:01:48.341Z,4.45
2018-09-28T10:04:17.588Z,4.85
2018-09-28T10:06:46.719Z,4.45
2018-09-28T10:09:15.865Z,5.50
2018-09-28T10:11:45.503Z,4.60
2018-09-28T10:14:14.693Z,4.95
2018-09-28T10:16:43.794Z,4.45
2018-09-28T10:19:13.455Z,5.25
2018-09-28T10:21:44.538Z,4.95
2018-09-28T10:24:15.524Z,4.85
2018-09-28T10:26:44.750Z,4.53
2018-09-28T10:29:13.913Z,4.20
2018-09-28T10:31:43.111Z,4.62
2018-09-28T10:34:12.433Z,4.20
2018-09-28T10:36:42.527Z,3.83
2018-09-28T10:39:11.700Z,4.60
2018-09-28T10:41:40.828Z,4.22
2018-09-28T10:44:09.839Z,4.25
2018-09-28T10:46:38.975Z,4.15
2018-09-28T10:49:08.441Z,4.47
2018-09-28T10:51:37.695Z,4.45
2018-09-28T10:54:06.931Z,5.17
2018-09-28T10:56:36.485Z,4.00
2018-09-28T10:59:06.793Z,4.33
2018-09-28T11:01:35.864Z,3.62
2018-09-28T11:04:05.072Z,4.03
2018-09-28T11:06:34.243Z,4.03
2018-09-28T11:09:03.661Z,4.15
2018-09-28T11:11:33.677Z,3.62
2018-09-28T11:14:02.776Z,3.67
2018-09-28T11:16:31.815Z,3.30
2018-09-28T11:19:01.492Z,3.52
2018-09-28T11:21:30.716Z,4.00
2018-09-28T11:23:59.785Z,4.10
2018-09-28T11:26:31.498Z,3.10
2018-09-28T11:29:00.733Z,3.27
2018-09-28T11:31:30.287Z,3.67
2018-09-28T11:33:59.437Z,3.40
2018-09-28T11:36:28.708Z,3.58
2018-09-28T11:38:57.886Z,3.95
2018-09-28T11:41:27.107Z,4.47
2018-09-28T11:43:56.157Z,3.90
2018-09-28T11:46:25.397Z,4.35
2018-09-28T11:48:54.480Z,3.37
2018-09-28T11:51:24.780Z,3.37
2018-09-28T11:53:53.844Z,3.60
2018-09-28T11:56:23.015Z,4.37
2018-09-28T11:58:53.987Z,3.45
2018-09-28T12:01:23.479Z,3.62
2018-09-28T12:03:52.722Z,3.98
2018-09-28T12:06:21.941Z,3.95
2018-09-28T12:08:51.598Z,3.47
2018-09-28T12:11:20.803Z,3.70
2018-09-28T12:13:49.945Z,3.60
2018-09-28T12:16:20.176Z,3.70
2018-09-28T12:18:49.555Z,3.65
2018-09-28T12:21:18.739Z,3.58
2018-09-28T12:23:47.919Z,3.72
2018-09-28T12:26:16.998Z,3.67
2018-09-28T12:28:46.717Z,3.40
2018-09-28T12:31:16.438Z,3.25
2018-09-28T12:33:45.605Z,3.90
2018-09-28T12:36:15.425Z,4.10
2018-09-28T12:38:45.535Z,4.28
2018-09-28T12:41:14.675Z,4.30
2018-09-28T12:43:43.832Z,4.22
2018-09-28T12:46:12.955Z,4.80
2018-09-28T12:48:42.147Z,5.15
2018-09-28T12:51:11.308Z,5.33
2018-09-28T12:53:40.723Z,5.00
2018-09-28T12:56:10.514Z,5.65
2018-09-28T12:58:42.068Z,5.85
2018-09-28T13:01:11.376Z,5.70
2018-09-28T13:03:41.001Z,5.58
2018-09-28T13:06:10.212Z,5.22
2018-09-28T13:08:39.626Z,5.47
2018-09-28T13:11:08.781Z,5.37
2018-09-28T13:13:37.845Z,7.30
2018-09-28T13:16:07.437Z,6.90
2018-09-28T13:18:36.663Z,7.95
2018-09-28T13:21:06.472Z,8.25
2018-09-28T13:23:38.202Z,7.83
2018-09-28T13:26:07.462Z,7.97
2018-09-28T13:28:36.716Z,7.37
2018-09-28T13:31:06.280Z,6.75
2018-09-28T13:33:39.235Z,5.78
2018-09-28T13:36:08.264Z,6.72
2018-09-28T13:38:37.669Z,5.95
2018-09-28T13:41:06.785Z,6.53
2018-09-28T13:43:35.965Z,5.95
2018-09-28T13:46:05.305Z,5.65
2018-09-28T13:48:35.716Z,5.65
2018-09-28T13:51:04.921Z,5.30
2018-09-28T13:53:34.139Z,5.50
2018-09-28T13:56:03.480Z,5.25
2018-09-28T13:58:32.645Z,5.80
2018-09-28T14:01:01.939Z,5.22
2018-09-28T14:03:31.202Z,4.78
2018-09-28T14:06:00.368Z,6.03
2018-09-28T14:08:30.468Z,5.67
2018-09-28T14:11:00.300Z,5.95
2018-09-28T14:13:29.515Z,6.05
2018-09-28T14:15:58.823Z,5.45
2018-09-28T14:18:28.011Z,6.58
2018-09-28T14:20:57.098Z,5.95
2018-09-28T14:23:26.157Z,5.87
2018-09-28T14:25:55.319Z,5.85
2018-09-28T14:28:27.781Z,6.42
2018-09-28T14:30:57.757Z,6.20
2018-09-28T14:33:28.706Z,5.90
2018-09-28T14:35:57.809Z,5.67
2018-09-28T14:38:27.027Z,5.28
2018-09-28T14:40:56.230Z,5.83
2018-09-28T14:43:25.385Z,5.40
2018-09-28T14:45:54.585Z,4.58
2018-09-28T14:48:24.271Z,4.92
2018-09-28T14:50:53.230Z,5.03
2018-09-28T14:53:22.274Z,5.28
2018-09-28T14:55:51.434Z,4.92
2018-09-28T14:58:21.452Z,4.47
2018-09-28T15:00:50.734Z,4.65
2018-09-28T15:03:20.546Z,4.53
2018-09-28T15:05:49.665Z,4.50
2018-09-28T15:08:18.756Z,4.00
2018-09-28T15:10:48.333Z,4.15
2018-09-28T15:13:17.354Z,4.05
2018-09-28T15:15:48.285Z,4.00
2018-09-28T15:18:18.187Z,3.92
2018-09-28T15:20:47.328Z,3.92
2018-09-28T15:23:17.833Z,3.65
2018-09-28T15:25:48.030Z,3.90
2018-09-28T15:28:17.106Z,4.25
2018-09-28T15:30:47.357Z,3.70
2018-09-28T15:33:16.439Z,4.05
2018-09-28T15:35:45.579Z,4.20
2018-09-28T15:38:14.895Z,3.52
2018-09-28T15:40:54.210Z,3.80
2018-09-28T15:43:23.373Z,3.65
2018-09-28T15:45:52.487Z,4.17
2018-09-28T15:48:21.648Z,3.42
2018-09-28T15:50:50.770Z,3.98
2018-09-28T15:53:19.982Z,3.40
2018-09-28T15:55:49.199Z,3.55
2018-09-28T15:58:18.343Z,3.40
2018-09-28T16:00:47.487Z,3.83
2018-09-28T16:03:16.548Z,3.60
2018-09-28T16:05:46.241Z,3.72
2018-09-28T16:08:15.446Z,3.98
2018-09-28T16:10:44.726Z,3.83
2018-09-28T16:13:13.856Z,4.30
2018-09-28T16:15:42.959Z,3.70
2018-09-28T16:18:12.139Z,3.40
2018-09-28T16:20:41.317Z,3.58
2018-09-28T16:23:13.630Z,3.60
2018-09-28T16:25:43.742Z,3.98
2018-09-28T16:28:13.524Z,3.67
2018-09-28T16:30:42.651Z,4.22
2018-09-28T16:33:11.824Z,3.70
2018-09-28T16:35:41.911Z,4.47
2018-09-28T16:38:11.798Z,3.98
2018-09-28T16:40:40.980Z,3.70
2018-09-28T16:43:11.404Z,3.80
2018-09-28T16:45:40.555Z,4.22
2018-09-28T16:48:11.754Z,4.00
2018-09-28T16:50:40.992Z,3.58
2018-09-28T16:53:10.117Z,3.87
2018-09-28T16:55:39.306Z,4.37
2018-09-28T16:58:08.532Z,4.00
2018-09-28T17:00:38.129Z,4.40
2018-09-28T17:03:08.058Z,3.77
2018-09-28T17:05:37.139Z,3.87
2018-09-28T17:08:06.394Z,4.55
2018-09-28T17:10:35.508Z,4.35
2018-09-28T17:13:04.626Z,3.67
2018-09-28T17:15:33.849Z,4.70
2018-09-28T17:18:03.715Z,3.92
2018-09-28T17:20:33.487Z,3.65
2018-09-28T17:23:02.707Z,4.40
2018-09-28T17:25:31.725Z,4.60
2018-09-28T17:28:00.783Z,4.10
2018-09-28T17:30:29.904Z,4.30
2018-09-28T17:32:59.082Z,4.50
2018-09-28T17:35:28.682Z,3.98
2018-09-28T17:37:58.323Z,4.58
2018-09-28T17:40:27.926Z,4.47
2018-09-28T17:42:57.034Z,4.25
2018-09-28T17:45:26.161Z,4.67
2018-09-28T17:47:55.299Z,4.15
2018-09-28T17:50:24.405Z,6.03
2018-09-28T17:52:53.566Z,5.40
2018-09-28T17:55:24.939Z,5.17
2018-09-28T17:57:55.639Z,6.97
2018-09-28T18:00:24.777Z,5.10
2018-09-28T18:02:54.833Z,6.50
2018-09-28T18:05:24.017Z,5.08
2018-09-28T18:07:53.118Z,5.10
2018-09-28T18:10:22.326Z,5.90
2018-09-28T18:12:51.585Z,5.35
2018-09-28T18:15:22.554Z,5.08
2018-09-28T18:17:52.434Z,5.72
2018-09-28T18:20:21.565Z,5.92
2018-09-28T18:22:50.688Z,5.50
2018-09-28T18:25:19.937Z,5.60
2018-09-28T18:27:49.067Z,5.50
2018-09-28T18:30:18.173Z,5.22
2018-09-28T18:32:47.735Z,5.47
2018-09-28T18:35:17.868Z,5.85
2018-09-28T18:37:47.038Z,6.62
2018-09-28T18:40:16.131Z,7.60
2018-09-28T18:42:46.897Z,7.45
2018-09-28T18:45:16.059Z,7.95
2018-09-28T18:47:45.220Z,7.37
2018-09-28T18:50:14.792Z,7.92
2018-09-28T18:52:43.848Z,8.88
2018-09-28T18:55:13.000Z,10.30
2018-09-28T18:57:42.486Z,10.68
2018-09-28T19:00:11.559Z,10.45
2018-09-28T19:02:40.828Z,10.50
2018-09-28T19:05:10.085Z,9.83
2018-09-28T19:07:39.214Z,10.93
2018-09-28T19:10:08.474Z,11.05
2018-09-28T19:12:37.833Z,11.10
2018-09-28T19:15:07.340Z,12.63
2018-09-28T19:17:36.482Z,11.22
2018-09-28T19:20:05.720Z,10.23
2018-09-28T19:22:34.936Z,10.75
2018-09-28T19:25:05.099Z,10.40
2018-09-28T19:27:34.238Z,11.10
2018-09-28T19:30:03.329Z,10.53
2018-09-28T19:32:32.590Z,10.08
2018-09-28T19:35:01.701Z,10.48
2018-09-28T19:37:30.933Z,9.53
2018-09-28T19:40:00.310Z,9.90
2018-09-28T19:42:29.336Z,9.95
2018-09-28T19:44:59.293Z,10.40
2018-09-28T19:47:30.904Z,10.40
2018-09-28T19:50:02.293Z,10.28
2018-09-28T19:52:31.962Z,10.13
2018-09-28T19:55:02.388Z,9.60
2018-09-28T19:57:32.161Z,8.55
2018-09-28T20:00:03.047Z,9.03
2018-09-28T20:02:33.165Z,9.53
2018-09-28T20:05:04.123Z,9.35
2018-09-28T20:07:33.854Z,8.93
2018-09-28T20:10:03.768Z,9.10
2018-09-28T20:12:33.000Z,8.77
2018-09-28T20:15:02.646Z,8.98
2018-09-28T20:17:32.782Z,9.20
2018-09-28T20:20:03.908Z,9.03
2018-09-28T20:22:36.104Z,8.90
2018-09-28T20:25:06.048Z,9.77
2018-09-28T20:27:37.274Z,8.90
2018-09-28T20:30:07.904Z,8.73
2018-09-28T20:32:36.986Z,8.90
2018-09-28T20:35:06.144Z,8.83
2018-09-28T20:37:35.306Z,8.13
2018-09-28T20:40:05.434Z,8.40
2018-09-28T20:42:35.207Z,8.27
2018-09-28T20:45:04.511Z,8.73
2018-09-28T20:47:33.500Z,7.80
2018-09-28T20:50:02.693Z,8.70
2018-09-28T20:52:32.394Z,8.15
2018-09-28T20:55:02.118Z,7.43
2018-09-28T20:57:32.841Z,7.37
2018-09-28T21:00:02.383Z,8.00
2018-09-28T21:02:31.473Z,7.60
2018-09-28T21:05:00.502Z,7.27
2018-09-28T21:07:29.592Z,6.97
2018-09-28T21:09:59.215Z,7.42
2018-09-28T21:12:29.186Z,6.57
2018-09-28T21:14:58.385Z,6.97
2018-09-28T21:17:28.075Z,6.70
2018-09-28T21:19:57.352Z,5.85
2018-09-28T21:22:26.582Z,6.57
2018-09-28T21:24:55.743Z,5.27
2018-09-28T21:27:24.877Z,6.07
2018-09-28T21:29:54.184Z,5.73
2018-09-28T21:32:23.825Z,5.73
2018-09-28T21:34:53.044Z,5.60
2018-09-28T21:37:22.270Z,5.50
2018-09-28T21:39:51.390Z,6.08
2018-09-28T21:42:20.472Z,5.17
2018-09-28T21:44:50.352Z,5.40
2018-09-28T21:47:19.489Z,5.70
2018-09-28T21:49:49.718Z,5.30
2018-09-28T21:52:18.905Z,5.50
2018-09-28T21:54:48.739Z,5.30
2018-09-28T21:57:17.865Z,5.40
2018-09-28T21:59:47.045Z,5.50
2018-09-28T22:02:16.251Z,4.87
2018-09-28T22:04:45.523Z,4.83
2018-09-28T22:07:14.739Z,4.20
2018-09-28T22:09:43.964Z,5.20
2018-09-28T22:12:13.122Z,5.37
2018-09-28T22:14:42.388Z,5.13
2018-09-28T22:17:12.296Z,5.13
2018-09-28T22:19:42.289Z,4.80
2018-09-28T22:22:11.800Z,4.77
2018-09-28T22:24:40.917Z,4.73
2018-09-28T22:27:10.539Z,4.47
2018-09-28T22:29:40.764Z,4.53
2018-09-28T22:32:11.300Z,4.50
2018-09-28T22:34:40.836Z,4.70
2018-09-28T22:37:10.701Z,4.67
2018-09-28T22:39:39.764Z,5.70
2018-09-28T22:42:09.275Z,4.23
2018-09-28T22:44:38.927Z,4.13
2018-09-28T22:47:08.550Z,4.50
2018-09-28T22:49:37.618Z,4.23
2018-09-28T22:52:06.726Z,3.63
2018-09-28T22:54:35.898Z,4.17
2018-09-28T22:57:05.182Z,3.53
2018-09-28T22:59:34.338Z,3.93
2018-09-28T23:02:04.250Z,4.00
2018-09-28T23:04:33.407Z,3.73
2018-09-28T23:07:02.641Z,3.43
2018-09-28T23:09:31.829Z,3.33
2018-09-28T23:12:01.143Z,3.60
2018-09-28T23:14:31.064Z,3.83
2018-09-28T23:17:00.058Z,4.00
2018-09-28T23:19:29.185Z,3.30
2018-09-28T23:21:59.669Z,3.73
2018-09-28T23:24:28.841Z,3.30
2018-09-28T23:26:58.042Z,3.57
2018-09-28T23:29:28.083Z,3.93
2018-09-28T23:31:57.343Z,3.73
2018-09-28T23:34:26.722Z,3.53
2018-09-28T23:36:55.772Z,3.63
2018-09-28T23:39:25.015Z,3.67
2018-09-28T23:41:55.346Z,3.27
2018-09-28T23:44:24.309Z,3.60
2018-09-28T23:46:53.482Z,3.40
2018-09-28T23:49:23.202Z,3.30
2018-09-28T23:51:52.590Z,3.50
2018-09-28T23:54:21.802Z,3.63
2018-09-28T23:56:50.858Z,3.50
2018-09-28T23:59:22.177Z,3.63
